Latest Weather Observations for Cooktown

IDQ60801

Issued at 8:12 am EST Friday 22 October 2021 (issued every 10 minutes, with the page automatically refreshed every 10 minutes)

About weather observations | Map of weather stations | Latest weather observations for QLD | Other Formats
Station Details ID: 031209 Name: COOKTOWN AIRPORT Lat: -15.45 Lon: 145.19 Height: 4.8 m
Data from the previous 72 hours. | See also: Recent months at Cooktown
Date/Time
EST
Temp
°C
App
Temp
°C
Dew
Point
°C
Rel
Hum
%
Delta-T
°C
Wind Press
QNH
hPa
Press
MSL
hPa
Rain since
9am
mm
Dir  Spd
km/h
Gust
km/h
Spd
kts
Gust
kts
22/08:00am 28.8 33.3 23.7 74 3.5 NE 6 11 3 6 1013.8 1013.8 0.2
22/07:30am 27.1 32.5 23.8 82 2.3 NNE 2 7 1 4 1013.6 1013.6 0.2
22/07:00am 25.4 31.0 23.6 90 1.2 CALM 0 0 0 0 1013.3 1013.3 0.2
22/06:30am 24.9 30.6 23.7 93 0.8 CALM 0 6 0 3 1012.9 1012.9 0.2
22/06:00am 24.3 28.6 23.3 94 0.7 NE 6 7 3 4 1012.3 1012.3 0.2
22/05:51am 24.2 28.7 23.0 93 0.8 NE 4 7 2 4 1012.1 1012.1 0.2
22/05:30am 23.8 28.0 22.4 92 0.9 NE 4 7 2 4 1011.8 1011.8 0.2
22/05:00am 24.4 29.7 23.0 92 0.9 CALM 0 0 0 0 1011.4 1011.4 0.2
22/04:30am 24.5 29.8 23.1 92 0.9 CALM 0 0 0 0 1011.1 1011.1 0.2
22/04:00am 24.5 28.1 23.1 92 0.9 NE 9 11 5 6 1011.0 1011.0 0.2
22/03:30am 24.7 29.8 23.3 92 1.0 ENE 2 6 1 3 1011.3 1011.3 0.2
22/03:00am 24.9 29.2 23.3 91 1.1 S 6 7 3 4 1011.3 1011.3 0.2
22/02:30am 24.8 30.2 23.2 91 1.1 CALM 0 0 0 0 1011.4 1011.4 0.2
22/02:25am 24.7 30.0 23.1 91 1.1 CALM 0 0 0 0 1011.5 1011.5 0.2
22/02:06am 24.5 29.7 22.9 91 1.1 CALM 0 0 0 0 1011.6 1011.6 0.0
22/02:00am 24.6 29.9 23.0 91 1.1 CALM 0 0 0 0 1011.7 1011.7 0.0
22/01:30am 24.2 28.9 22.6 91 1.1 NNW 2 9 1 5 1011.7 1011.7 0.0
22/01:00am 24.1 28.2 22.2 89 1.3 W 4 7 2 4 1012.0 1012.0 0.0
22/12:30am 24.4 27.6 23.0 92 0.9 W 11 15 6 8 1012.4 1012.4 0.0
22/12:00am 23.8 28.6 22.1 90 1.1 CALM 0 6 0 3 1012.4 1012.4 0.0
 
Date/Time
EST
Temp
°C
App
Temp
°C
Dew
Point
°C
Rel
Hum
%
Delta-T
°C
Wind Press
QNH
hPa
Press
MSL
hPa
Rain since
9am
mm
Dir  Spd
km/h
Gust
km/h
Spd
kts
Gust
kts
21/11:30pm 24.0 28.9 22.3 90 1.1 CALM 0 0 0 0 1012.5 1012.5 0.0
21/11:00pm 24.2 29.0 22.1 88 1.4 CALM 0 0 0 0 1012.6 1012.6 0.0
21/10:30pm 24.6 29.5 22.3 87 1.5 CALM 0 0 0 0 1012.6 1012.6 0.0
21/10:00pm 25.0 30.0 22.5 86 1.7 CALM 0 0 0 0 1012.5 1012.5 0.0
21/09:30pm 25.5 30.6 22.6 84 2.0 CALM 0 0 0 0 1012.6 1012.6 0.0
21/09:00pm 25.5 30.6 22.6 84 2.0 CALM 0 0 0 0 1012.1 1012.1 0.0
21/08:30pm 25.9 31.1 22.8 83 2.1 CALM 0 0 0 0 1011.5 1011.5 0.0
21/08:00pm 26.0 30.0 22.7 82 2.2 E 6 9 3 5 1010.8 1010.8 0.0
21/07:30pm 26.5 30.3 22.8 80 2.5 ENE 7 11 4 6 1010.5 1010.5 0.0
21/07:00pm 26.7 30.3 23.0 80 2.5 E 9 11 5 6 1010.2 1010.2 0.0
21/06:30pm 27.2 30.3 22.8 77 3.0 ENE 11 13 6 7 1009.9 1009.9 0.0
21/06:00pm 28.0 30.5 23.2 75 3.3 ENE 15 19 8 10 1009.4 1009.4 0.0
21/05:30pm 28.9 31.0 23.1 71 4.0 E 17 24 9 13 1009.1 1009.1 0.0
21/05:00pm 29.8 31.3 23.0 67 4.7 E 20 28 11 15 1008.4 1008.3 0.0
21/04:30pm 29.8 29.8 23.0 67 4.7 E 28 35 15 19 1007.7 1007.6 0.0
21/04:00pm 30.4 30.6 22.8 64 5.2 E 26 33 14 18 1007.8 1007.7 0.0
21/03:30pm 31.3 31.8 22.6 60 5.9 E 24 30 13 16 1007.8 1007.7 0.0
21/03:00pm 31.5 31.3 22.8 60 6.0 E 28 33 15 18 1008.0 1007.9 0.0
21/02:30pm 30.8 30.6 22.1 59 5.9 E 26 35 14 19 1008.4 1008.3 0.0
21/02:00pm 30.0 29.9 22.9 65 4.9 E 28 35 15 19 1008.6 1008.5 0.0
21/01:30pm 30.4 30.9 22.6 63 5.3 E 24 30 13 16 1008.9 1008.8 0.0
21/01:00pm 32.6 34.5 24.4 62 5.8 E 22 30 12 16 1009.5 1009.5 0.0
21/12:30pm 31.5 32.6 23.6 63 5.5 E 24 33 13 18 1010.0 1010.0 0.0
21/12:00pm 31.4 32.4 23.5 63 5.5 E 24 32 13 17 1010.6 1010.6 0.0
21/11:30am 31.0 31.5 22.6 61 5.7 E 24 32 13 17 1011.3 1011.3 0.0
21/11:00am 30.9 32.4 23.0 62 5.4 E 20 32 11 17 1011.7 1011.7 0.0
21/10:30am 31.2 33.2 22.2 58 6.1 NE 15 20 8 11 1012.1 1012.1 0.0
21/10:00am 29.9 32.5 22.6 65 5.0 ENE 13 20 7 11 1012.6 1012.6 0.0
21/09:30am 28.6 33.7 23.3 73 3.6 E 2 9 1 5 1013.1 1013.1 0.0
21/09:00am 26.8 31.9 22.6 78 2.8 CALM 0 7 0 4 1013.3 1013.3 0.0
21/08:30am 26.1 30.9 22.8 82 2.2 S 2 6 1 3 1013.4 1013.4 0.0
21/08:00am 25.4 30.5 22.7 85 1.8 CALM 0 0 0 0 1013.1 1013.1 0.0
21/07:30am 24.4 28.7 21.9 86 1.7 WNW 2 7 1 4 1012.6 1012.6 0.0
21/07:00am 23.9 28.0 22.2 90 1.1 WSW 4 7 2 4 1012.1 1012.1 0.0
21/06:30am 23.1 26.8 21.5 91 1.1 W 4 7 2 4 1011.4 1011.4 0.0
21/06:00am 23.0 27.5 21.5 91 1.0 CALM 0 0 0 0 1010.8 1010.8 0.0
21/05:30am 23.0 26.3 21.5 91 1.0 W 6 9 3 5 1010.6 1010.6 0.0
21/05:00am 22.8 26.0 21.3 91 1.0 WNW 6 7 3 4 1010.3 1010.3 0.0
21/04:30am 23.0 27.5 21.5 91 1.0 CALM 0 0 0 0 1010.0 1010.0 0.0
21/04:00am 22.9 26.6 21.5 92 0.9 W 4 7 2 4 1010.0 1010.0 0.0
21/03:30am 22.7 25.9 21.3 92 0.9 W 6 7 3 4 1009.9 1009.9 0.0
21/03:00am 22.3 25.6 20.8 91 1.0 SW 4 6 2 3 1010.2 1010.2 0.0
21/02:30am 22.2 26.2 20.5 90 1.1 CALM 0 6 0 3 1010.2 1010.2 0.0
21/02:00am 22.6 26.8 20.9 90 1.1 CALM 0 0 0 0 1010.5 1010.5 0.0
21/01:30am 23.5 28.1 21.8 90 1.1 CALM 0 0 0 0 1010.4 1010.4 0.0
21/01:00am 24.1 28.9 22.2 89 1.3 CALM 0 0 0 0 1010.6 1010.6 0.0
21/12:30am 23.8 26.9 21.5 87 1.5 NNE 7 9 4 5 1010.6 1010.6 0.0
21/12:00am 24.9 28.5 22.0 84 1.9 W 6 9 3 5 1011.0 1011.0 0.0
 
Date/Time
EST
Temp
°C
App
Temp
°C
Dew
Point
°C
Rel
Hum
%
Delta-T
°C
Wind Press
QNH
hPa
Press
MSL
hPa
Rain since
9am
mm
Dir  Spd
km/h
Gust
km/h
Spd
kts
Gust
kts
20/11:30pm 25.6 28.9 22.5 83 2.1 WSW 9 13 5 7 1011.5 1011.5 0.0
20/11:00pm 25.8 31.0 22.9 84 2.0 CALM 0 0 0 0 1011.3 1011.3 0.0
20/10:52pm 25.5 30.6 22.6 84 2.0 CALM 0 0 0 0 1011.2 1011.2 0.0
20/10:30pm 25.3 30.2 22.4 84 1.9 CALM 0 0 0 0 1011.3 1011.3 0.0
20/10:08pm 25.5 30.7 22.8 85 1.8 CALM 0 0 0 0 1011.2 1011.2 0.0
20/10:00pm 25.3 30.1 22.2 83 2.1 CALM 0 0 0 0 1011.2 1011.2 0.0
20/09:30pm 25.7 29.5 22.4 82 2.2 ENE 6 7 3 4 1010.6 1010.6 0.0
20/09:00pm 26.2 30.7 22.3 79 2.6 NNE 2 11 1 6 1010.4 1010.4 0.0
20/08:30pm 26.6 29.6 22.0 76 3.1 NNE 9 13 5 7 1009.9 1009.9 0.0
20/08:00pm 26.8 29.1 22.0 75 3.2 NE 13 20 7 11 1009.6 1009.6 0.0
20/07:30pm 27.5 29.9 21.5 70 4.0 N 11 19 6 10 1009.2 1009.2 0.0
20/07:00pm 27.6 30.4 21.6 70 4.0 N 9 13 5 7 1009.2 1009.2 0.0
20/06:30pm 28.1 31.6 22.1 70 4.0 NE 7 13 4 7 1009.0 1008.9 0.0
20/06:00pm 28.7 31.1 22.2 68 4.4 NNE 13 24 7 13 1008.4 1008.3 0.0
20/05:30pm 29.5 31.4 21.4 61 5.4 NNE 13 20 7 11 1008.1 1008.0 0.0
20/05:00pm 30.2 31.5 21.6 60 5.8 NNE 17 24 9 13 1007.7 1007.6 0.0
20/04:30pm 30.9 31.9 21.7 58 6.2 NNE 19 32 10 17 1007.8 1007.7 0.0
20/04:00pm 32.9 33.5 21.4 50 7.8 NNE 20 32 11 17 1007.7 1007.6 0.0
20/03:30pm 33.6 34.2 21.1 48 8.4 NNE 19 30 10 16 1007.7 1007.6 0.0
20/03:00pm 34.1 34.6 21.2 47 8.7 NE 20 35 11 19 1008.1 1008.0 0.0
20/02:30pm 34.3 34.4 20.3 44 9.4 NE 20 33 11 18 1008.6 1008.5 0.0
20/02:00pm 34.0 34.8 23.1 53 7.6 E 24 33 13 18 1009.2 1009.2 0.0
20/01:30pm 32.3 32.4 23.3 59 6.2 E 28 35 15 19 1010.1 1010.1 0.0
20/01:00pm 32.8 33.6 23.2 57 6.6 E 24 30 13 16 1010.8 1010.8 0.0
20/12:30pm 32.0 32.4 22.4 57 6.6 ESE 24 32 13 17 1011.5 1011.5 0.0
20/12:00pm 32.7 33.4 22.2 54 7.2 E 22 28 12 15 1011.9 1011.9 0.0
20/11:30am 33.4 36.2 21.5 49 8.1 NNE 9 15 5 8 1012.5 1012.5 0.0
20/11:00am 32.2 33.5 20.1 48 8.0 NW 13 24 7 13 1013.0 1013.0 0.0
20/10:30am 31.7 34.3 21.2 53 7.1 NNW 9 17 5 9 1013.6 1013.6 0.0
20/10:00am 30.5 33.7 21.3 58 6.2 N 6 11 3 6 1014.4 1014.4 0.0
20/09:30am 29.2 33.5 21.9 64 4.9 W 2 6 1 3 1014.5 1014.5 0.0
20/09:00am 28.1 31.6 21.9 69 4.2 WSW 6 11 3 6 1014.7 1014.7 0.0
20/08:30am 27.5 31.3 22.7 75 3.3 SW 7 11 4 6 1014.4 1014.4 0.0
20/08:00am 25.8 29.5 22.3 81 2.3 WNW 6 9 3 5 1014.3 1014.3 0.0
20/07:30am 24.3 28.0 22.6 90 1.1 NW 7 9 4 5 1014.1 1014.1 0.0
20/07:00am 22.7 26.0 21.5 93 0.8 NW 6 9 3 5 1013.8 1013.8 0.0
20/06:30am 21.8 25.9 20.8 94 0.6 CALM 0 0 0 0 1013.5 1013.5 0.0
20/06:00am 21.2 24.9 20.0 93 0.8 CALM 0 0 0 0 1013.2 1013.2 0.0
20/05:30am 21.4 25.2 20.2 93 0.8 CALM 0 0 0 0 1012.9 1012.9 0.0
20/05:00am 21.5 25.5 20.5 94 0.6 CALM 0 0 0 0 1012.6 1012.6 0.0
20/04:50am 21.3 25.1 20.1 93 0.8 CALM 0 0 0 0 1012.4 1012.4 0.0
20/04:31am 21.5 25.5 20.5 94 0.6 CALM 0 0 0 0 1012.1 1012.1 0.0
20/04:30am 21.5 25.5 20.5 94 0.6 CALM 0 0 0 0 1012.1 1012.1 0.0
20/04:14am 21.8 25.5 20.8 94 0.6 NW 2 6 1 3 1012.0 1012.0 0.0
20/04:00am 22.0 25.1 21.0 94 0.7 NW 6 7 3 4 1011.9 1011.9 0.0
20/03:37am 21.7 25.0 20.7 94 0.6 W 4 6 2 3 1011.8 1011.8 0.0
20/03:30am 21.9 24.9 20.9 94 0.7 W 6 9 3 5 1011.8 1011.8 0.0
20/03:00am 22.0 24.9 21.0 94 0.7 W 7 13 4 7 1011.7 1011.7 0.0
20/02:30am 21.5 25.4 20.3 93 0.8 CALM 0 0 0 0 1011.5 1011.5 0.0
20/02:00am 22.2 25.8 21.2 94 0.7 WNW 4 6 2 3 1011.9 1011.9 0.0
20/01:30am 21.7 25.6 20.3 92 0.9 CALM 0 0 0 0 1012.2 1012.2 0.0
20/01:00am 22.3 26.5 20.9 92 0.9 CALM 0 0 0 0 1012.7 1012.7 0.0
20/12:30am 22.3 25.3 20.8 91 1.0 NW 6 7 3 4 1013.1 1013.1 0.0
20/12:00am 22.6 25.7 21.1 91 1.0 NW 6 7 3 4 1013.3 1013.3 0.0
 
Date/Time
EST
Temp
°C
App
Temp
°C
Dew
Point
°C
Rel
Hum
%
Delta-T
°C
Wind Press
QNH
hPa
Press
MSL
hPa
Rain since
9am
mm
Dir  Spd
km/h
Gust
km/h
Spd
kts
Gust
kts
19/11:30pm 22.8 27.1 21.1 90 1.1 CALM 0 7 0 4 1013.7 1013.7 0.0
19/11:00pm 23.7 28.4 22.0 90 1.1 CALM 0 0 0 0 1014.0 1014.0 0.0
19/10:52pm 23.8 28.6 22.1 90 1.1 CALM 0 0 0 0 1014.2 1014.2 0.0
19/10:30pm 24.0 28.8 22.1 89 1.3 CALM 0 0 0 0 1014.3 1014.3 0.0
19/10:00pm 24.2 29.2 22.5 90 1.1 CALM 0 0 0 0 1014.3 1014.3 0.0
19/09:45pm 23.7 28.3 21.8 89 1.3 CALM 0 0 0 0 1014.1 1014.1 0.0
19/09:30pm 24.0 28.8 22.1 89 1.3 CALM 0 0 0 0 1014.1 1014.1 0.0
19/09:00pm 24.5 29.4 22.4 88 1.4 CALM 0 0 0 0 1013.8 1013.8 0.0
19/08:30pm 24.7 29.5 22.2 86 1.7 CALM 0 0 0 0 1013.6 1013.6 0.0
19/08:00pm 24.8 29.6 22.1 85 1.8 CALM 0 0 0 0 1013.3 1013.3 0.0
19/07:30pm 25.1 29.8 22.0 83 2.1 CALM 0 0 0 0 1013.0 1013.0 0.0
19/07:00pm 26.1 31.2 22.6 81 2.4 CALM 0 0 0 0 1012.7 1012.7 0.0
19/06:30pm 26.6 30.4 22.7 79 2.6 ENE 7 11 4 6 1012.6 1012.6 0.0
19/06:00pm 27.3 29.6 22.7 76 3.1 ENE 15 20 8 11 1012.2 1012.2 0.0
19/05:30pm 27.9 29.2 22.4 72 3.7 ENE 19 24 10 13 1011.8 1011.8 0.0
19/05:00pm 28.6 30.2 22.8 71 4.0 E 19 26 10 14 1011.5 1011.5 0.0
19/04:30pm 29.2 30.3 22.4 66 4.6 E 20 26 11 14 1011.3 1011.3 0.0
19/04:00pm 29.9 30.8 22.6 65 5.0 E 22 32 12 17 1011.4 1011.4 0.0
19/03:30pm 30.7 31.6 22.6 62 5.5 E 22 32 12 17 1011.4 1011.4 0.0
19/03:00pm 31.1 31.6 21.9 58 6.2 E 22 32 12 17 1011.7 1011.7 0.0
19/02:30pm 31.4 32.2 22.4 59 6.1 E 22 30 12 16 1012.0 1012.0 0.0
19/02:00pm 31.5 32.3 22.5 59 6.1 E 22 30 12 16 1012.3 1012.3 0.0
19/01:30pm 30.8 30.8 21.6 58 6.2 E 24 30 13 16 1013.1 1013.1 0.0
19/01:00pm 31.0 31.1 21.8 58 6.2 E 24 32 13 17 1013.6 1013.6 0.0
19/12:30pm 32.0 32.9 22.7 58 6.4 E 22 30 12 16 1014.2 1014.2 0.0
19/12:00pm 31.1 31.4 21.6 57 6.4 E 22 30 12 16 1014.6 1014.6 0.0
19/11:30am 30.8 31.3 21.9 59 6.0 ESE 22 28 12 15 1015.1 1015.1 0.0
19/11:00am 31.0 32.6 21.5 57 6.4 ENE 15 22 8 12 1015.6 1015.6 0.0
19/10:30am 30.6 32.3 21.7 59 6.0 E 15 20 8 11 1015.9 1015.9 0.0
19/10:00am 30.4 31.7 20.9 56 6.3 E 15 22 8 12 1016.2 1016.2 0.0
19/09:30am 28.8 32.0 21.3 64 5.0 ENE 6 9 3 5 1016.4 1016.4 0.0
19/09:00am 28.5 31.6 21.0 64 5.0 ESE 6 13 3 7 1016.4 1016.4 0.0
19/08:30am 28.6 33.0 22.8 71 3.9 SW 4 11 2 6 1016.2 1016.2 0.0

Other formats

Comma delimited format used in spreadsheet applications
http://www.bom.gov.au/fwo/IDQ60801/IDQ60801.95283.axf

JavaScript Object Notation format (JSON) in row-major order
http://www.bom.gov.au/fwo/IDQ60801/IDQ60801.95283.json

Data quality

Most of these data are generated automatically and are frequently updated. Quality checks on data are not normally performed. It is possible for incorrect values to appear. Refer to information at About Latest Weather Observations and please check the disclaimer before using these data.